Terminal Aerodrome Forecast
Issued by NWS

Home | Current Version | Previous Version | Graphics & Text | Print | Product List | Glossary On
Versions: 1 2 3 4 5 6 7 8 9 10 11 12
000
FTUS43 KUNR 012320
TAFGCC
TAF
KGCC 012320Z 0200/0224 30008KT P6SM SKC
     FM020400 18011KT P6SM SCT200
     FM021700 22016KT P6SM SCT200=

USA.gov is the U.S. government's official web portal to all federal, state and local government web resources and services.